Time,TemperatureF,DewpointF,PressureIn,WindDirection,WindDirectionDegrees,WindSpeedMPH,WindSpeedGustMPH,Humidity,HourlyPrecipIn,Conditions,Clouds,dailyrainin,SoftwareType,DateUTC
2013-07-30 00:00:00,83.4,77.3,30.14,SE,124,3.0,5.3,82,0.00,,---,0.00,VWS V13.01,2013-07-30 04:00:00,
2013-07-30 00:01:00,83.3,77.2,30.14,SE,142,3.1,4.0,82,0.00,,---,0.00,VWS V13.01,2013-07-30 04:01:00,
2013-07-30 00:02:00,83.4,77.2,30.14,SSE,150,4.0,4.0,82,0.00,,---,0.00,VWS V13.01,2013-07-30 04:02:00,
2013-07-30 00:05:00,83.3,77.1,30.14,ESE,112,4.3,6.1,82,0.00,,---,0.00,VWS V13.01,2013-07-30 04:05:00,
2013-07-30 00:10:00,83.5,77.2,30.14,SE,124,3.9,3.9,82,0.00,,---,0.00,VWS V13.01,2013-07-30 04:10:00,
2013-07-30 00:15:00,83.5,77.4,30.13,SE,131,3.1,4.3,82,0.00,,---,0.00,VWS V13.01,2013-07-30 04:15:00,
2013-07-30 00:20:00,83.3,77.1,30.13,ESE,118,3.0,5.9,82,0.00,,---,0.00,VWS V13.01,2013-07-30 04:20:00,
2013-07-30 00:22:00,83.3,77.1,30.13,ESE,107,2.2,6.3,82,0.00,,---,0.00,VWS V13.01,2013-07-30 04:22:00,
2013-07-30 00:27:00,83.2,77.0,30.13,ESE,112,3.0,3.8,82,0.00,,---,0.00,VWS V13.01,2013-07-30 04:27:00,
2013-07-30 00:33:00,83.5,77.3,30.13,SE,136,1.6,3.6,82,0.00,,---,0.00,VWS V13.01,2013-07-30 04:33:00,
2013-07-30 00:38:00,83.5,77.2,30.13,ESE,115,2.8,4.8,81,0.00,,---,0.00,VWS V13.01,2013-07-30 04:38:00,
2013-07-30 00:43:00,83.4,77.2,30.13,SE,128,2.9,4.6,82,0.00,,---,0.00,VWS V13.01,2013-07-30 04:43:00,
2013-07-30 00:48:00,83.4,77.3,30.13,SSE,155,2.4,6.0,82,0.00,,---,0.00,VWS V13.01,2013-07-30 04:48:00,
2013-07-30 00:53:00,83.5,77.4,30.13,SE,129,4.4,6.5,82,0.00,,---,0.00,VWS V13.01,2013-07-30 04:53:00,
2013-07-30 00:58:00,83.5,77.5,30.13,ESE,112,5.5,6.2,82,0.00,,---,0.00,VWS V13.01,2013-07-30 04:58:00,
2013-07-30 01:03:00,83.5,77.6,30.13,SE,136,1.6,4.1,82,0.00,,---,0.00,VWS V13.01,2013-07-30 05:03:00,
2013-07-30 01:08:00,83.2,77.3,30.13,ENE,76,1.9,5.0,82,0.00,,---,0.00,VWS V13.01,2013-07-30 05:08:00,
2013-07-30 01:13:00,83.1,77.1,30.13,SE,134,2.4,3.3,82,0.00,,---,0.00,VWS V13.01,2013-07-30 05:13:00,
2013-07-30 01:18:00,83.4,77.3,30.13,ENE,70,3.4,5.5,82,0.00,,---,0.00,VWS V13.01,2013-07-30 05:18:00,
2013-07-30 01:23:00,83.4,77.3,30.13,SE,136,2.3,4.2,82,0.00,,---,0.00,VWS V13.01,2013-07-30 05:23:00,
2013-07-30 01:28:00,83.5,77.5,30.13,SE,132,3.7,4.0,82,0.00,,---,0.00,VWS V13.01,2013-07-30 05:28:00,
2013-07-30 01:33:00,83.4,77.8,30.13,SSE,149,4.5,6.6,83,0.00,,---,0.00,VWS V13.01,2013-07-30 05:33:00,
2013-07-30 01:38:00,83.0,78.3,30.14,South,188,0.5,5.5,86,0.21,,---,0.21,VWS V13.01,2013-07-30 05:38:00,
2013-07-30 01:43:00,82.2,78.1,30.13,WNW,283,0.9,3.9,87,0.40,,---,0.40,VWS V13.01,2013-07-30 05:43:00,
2013-07-30 01:48:00,81.4,77.8,30.13,North,1,0.4,3.5,89,0.47,,---,0.47,VWS V13.01,2013-07-30 05:48:00,
2013-07-30 01:53:00,81.4,78.4,30.12,SE,131,1.4,5.0,90,0.47,,---,0.47,VWS V13.01,2013-07-30 05:53:00,
2013-07-30 01:58:00,81.4,78.7,30.12,SE,127,2.7,2.7,92,0.47,,---,0.47,VWS V13.01,2013-07-30 05:58:00,
2013-07-30 02:03:00,81.5,78.8,30.12,ESE,117,0.0,1.3,91,0.47,,---,0.47,VWS V13.01,2013-07-30 06:03:00,
2013-07-30 02:08:00,81.3,78.6,30.12,ESE,117,0.0,0.0,91,0.47,,---,0.47,VWS V13.01,2013-07-30 06:08:00,
2013-07-30 02:13:00,81.2,78.5,30.12,ESE,117,0.0,0.0,91,0.47,,---,0.47,VWS V13.01,2013-07-30 06:13:00,
2013-07-30 02:18:00,81.3,78.6,30.12,ESE,110,2.4,2.4,91,0.47,,---,0.47,VWS V13.01,2013-07-30 06:18:00,
2013-07-30 02:23:00,81.0,78.3,30.12,ESE,120,0.0,0.0,91,0.47,,---,0.47,VWS V13.01,2013-07-30 06:23:00,
2013-07-30 02:28:00,81.2,78.5,30.12,East,97,0.0,0.0,91,0.47,,---,0.47,VWS V13.01,2013-07-30 06:28:00,
2013-07-30 02:33:00,80.8,78.2,30.11,SE,135,0.9,3.7,92,0.47,,---,0.47,VWS V13.01,2013-07-30 06:33:00,
2013-07-30 02:38:00,80.7,78.0,30.11,SE,142,0.7,0.7,92,0.30,,---,0.47,VWS V13.01,2013-07-30 06:38:00,
2013-07-30 02:43:00,80.7,78.0,30.12,SE,143,0.0,0.0,92,0.10,,---,0.47,VWS V13.01,2013-07-30 06:43:00,
2013-07-30 02:48:00,81.0,78.3,30.11,SSE,159,0.0,0.0,92,0.01,,---,0.47,VWS V13.01,2013-07-30 06:48:00,
2013-07-30 02:53:00,81.2,78.5,30.12,East,100,0.0,3.9,92,0.00,,---,0.47,VWS V13.01,2013-07-30 06:53:00,
2013-07-30 02:58:00,81.0,78.2,30.11,SSE,150,0.0,0.0,91,0.00,,---,0.47,VWS V13.01,2013-07-30 06:58:00,
2013-07-30 03:03:00,81.3,78.5,30.11,ESE,115,0.0,2.4,91,0.00,,---,0.47,VWS V13.01,2013-07-30 07:03:00,
2013-07-30 03:08:00,81.0,78.2,30.10,South,181,0.7,2.4,91,0.00,,---,0.47,VWS V13.01,2013-07-30 07:08:00,
2013-07-30 03:13:00,81.0,78.2,30.10,SE,132,0.0,0.7,91,0.00,,---,0.47,VWS V13.01,2013-07-30 07:13:00,
2013-07-30 03:18:00,81.1,78.2,30.10,SE,132,0.0,0.0,91,0.00,,---,0.47,VWS V13.01,2013-07-30 07:18:00,
2013-07-30 03:23:00,81.2,78.3,30.11,SE,132,0.0,1.2,91,0.00,,---,0.47,VWS V13.01,2013-07-30 07:23:00,
2013-07-30 03:28:00,81.3,78.2,30.10,ESE,114,0.0,0.0,90,0.00,,---,0.47,VWS V13.01,2013-07-30 07:28:00,
2013-07-30 03:33:00,80.8,77.7,30.10,ESE,114,0.0,0.0,90,0.00,,---,0.47,VWS V13.01,2013-07-30 07:33:00,
2013-07-30 03:38:00,80.5,77.4,30.10,ESE,114,0.0,0.0,90,0.00,,---,0.47,VWS V13.01,2013-07-30 07:38:00,
2013-07-30 03:43:00,80.4,77.3,30.10,ESE,114,0.0,0.0,90,0.00,,---,0.47,VWS V13.01,2013-07-30 07:43:00,
2013-07-30 03:48:00,80.5,77.5,30.11,ESE,114,0.0,0.0,91,0.00,,---,0.47,VWS V13.01,2013-07-30 07:48:00,
2013-07-30 03:53:00,80.5,77.6,30.11,NE,46,0.9,1.8,91,0.00,,---,0.47,VWS V13.01,2013-07-30 07:53:00,
2013-07-30 03:58:00,80.3,77.5,30.11,ESE,107,1.6,8.1,91,0.00,,---,0.47,VWS V13.01,2013-07-30 07:58:00,
2013-07-30 04:03:00,80.0,76.3,30.10,East,91,1.6,5.8,88,0.00,,---,0.47,VWS V13.01,2013-07-30 08:03:00,
2013-07-30 04:08:00,79.9,76.0,30.10,SE,129,2.9,2.9,88,0.00,,---,0.47,VWS V13.01,2013-07-30 08:08:00,
2013-07-30 04:13:00,80.0,76.3,30.10,SE,128,0.0,0.0,88,0.00,,---,0.47,VWS V13.01,2013-07-30 08:13:00,
2013-07-30 04:18:00,79.9,76.2,30.10,East,82,0.8,2.1,88,0.00,,---,0.47,VWS V13.01,2013-07-30 08:18:00,
2013-07-30 04:23:00,80.0,76.5,30.11,ENE,70,0.0,0.2,89,0.00,,---,0.47,VWS V13.01,2013-07-30 08:23:00,
2013-07-30 04:28:00,80.1,76.6,30.11,ENE,70,0.0,0.0,89,0.00,,---,0.47,VWS V13.01,2013-07-30 08:28:00,
2013-07-30 04:33:00,80.0,76.6,30.11,ENE,76,0.6,2.1,89,0.00,,---,0.47,VWS V13.01,2013-07-30 08:33:00,
2013-07-30 04:39:00,80.0,76.8,30.10,SE,138,1.9,2.5,90,0.00,,---,0.47,VWS V13.01,2013-07-30 08:39:00,
2013-07-30 04:44:00,80.0,76.8,30.10,ENE,72,1.1,1.9,90,0.00,,---,0.47,VWS V13.01,2013-07-30 08:44:00,
2013-07-30 04:49:00,80.0,76.8,30.10,ENE,77,0.0,1.3,90,0.00,,---,0.47,VWS V13.01,2013-07-30 08:49:00,
2013-07-30 04:54:00,80.2,76.8,30.10,SE,124,1.4,1.4,89,0.00,,---,0.47,VWS V13.01,2013-07-30 08:54:00,
2013-07-30 04:59:00,80.3,76.8,30.11,ENE,65,0.0,0.0,89,0.00,,---,0.47,VWS V13.01,2013-07-30 08:59:00,
2013-07-30 05:04:00,79.9,76.4,30.11,ENE,65,0.0,0.0,89,0.00,,---,0.47,VWS V13.01,2013-07-30 09:04:00,
2013-07-30 05:09:00,79.8,76.2,30.11,East,87,0.8,2.7,89,0.00,,---,0.47,VWS V13.01,2013-07-30 09:09:00,
2013-07-30 05:14:00,79.7,76.1,30.11,ESE,103,0.0,0.0,89,0.00,,---,0.47,VWS V13.01,2013-07-30 09:14:00,
2013-07-30 05:19:00,79.7,76.0,30.11,East,89,0.4,2.6,88,0.00,,---,0.47,VWS V13.01,2013-07-30 09:19:00,
2013-07-30 05:24:00,79.3,75.7,30.11,ENE,69,4.4,5.7,89,0.00,,---,0.47,VWS V13.01,2013-07-30 09:24:00,
2013-07-30 05:29:00,79.5,76.0,30.11,East,100,1.4,3.8,89,0.00,,---,0.47,VWS V13.01,2013-07-30 09:29:00,
2013-07-30 05:34:00,79.4,75.9,30.11,ENE,77,0.0,2.8,89,0.00,,---,0.47,VWS V13.01,2013-07-30 09:34:00,
2013-07-30 05:39:00,79.7,76.3,30.11,ENE,63,2.1,2.5,89,0.00,,---,0.47,VWS V13.01,2013-07-30 09:39:00,
2013-07-30 05:44:00,79.7,76.3,30.10,East,79,0.0,1.7,90,0.00,,---,0.47,VWS V13.01,2013-07-30 09:44:00,
2013-07-30 05:49:00,79.5,76.2,30.10,ESE,110,1.7,1.7,90,0.00,,---,0.47,VWS V13.01,2013-07-30 09:49:00,
2013-07-30 05:54:00,79.3,76.0,30.10,NE,46,0.0,0.0,90,0.00,,---,0.47,VWS V13.01,2013-07-30 09:54:00,
2013-07-30 05:59:00,79.3,76.1,30.10,SE,138,0.0,0.0,90,0.00,,---,0.47,VWS V13.01,2013-07-30 09:59:00,
2013-07-30 06:04:00,79.5,76.3,30.10,SE,138,0.0,0.0,90,0.00,,---,0.47,VWS V13.01,2013-07-30 10:04:00,
2013-07-30 06:09:00,79.4,76.2,30.10,East,94,1.6,5.3,90,0.00,,---,0.47,VWS V13.01,2013-07-30 10:09:00,
2013-07-30 06:14:00,79.2,75.9,30.10,ENE,60,0.8,3.4,90,0.00,,---,0.47,VWS V13.01,2013-07-30 10:14:00,
2013-07-30 06:19:00,79.0,75.7,30.10,ENE,70,0.0,0.0,90,0.00,,---,0.47,VWS V13.01,2013-07-30 10:19:00,
2013-07-30 06:23:00,78.9,75.7,30.10,ENE,70,0.0,0.0,90,0.00,,---,0.47,VWS V13.01,2013-07-30 10:23:00,
2013-07-30 06:28:00,79.0,75.8,30.10,ENE,70,0.0,0.0,90,0.00,,---,0.47,VWS V13.01,2013-07-30 10:28:00,
2013-07-30 06:33:00,79.0,75.8,30.10,NNE,21,0.0,0.0,90,0.00,,---,0.47,VWS V13.01,2013-07-30 10:33:00,
2013-07-30 06:38:00,78.9,75.8,30.10,NE,45,0.0,0.5,90,0.00,,---,0.47,VWS V13.01,2013-07-30 10:38:00,
2013-07-30 06:43:00,78.9,75.8,30.11,East,83,2.9,3.1,90,0.00,,---,0.47,VWS V13.01,2013-07-30 10:43:00,
2013-07-30 06:48:00,78.8,75.8,30.11,ENE,73,0.0,0.4,90,0.00,,---,0.47,VWS V13.01,2013-07-30 10:48:00,
2013-07-30 06:53:00,79.0,76.0,30.11,East,79,1.8,3.4,90,0.00,,---,0.47,VWS V13.01,2013-07-30 10:53:00,
2013-07-30 06:58:00,79.0,76.1,30.11,East,101,1.7,2.5,91,0.00,,---,0.47,VWS V13.01,2013-07-30 10:58:00,
2013-07-30 07:03:00,79.2,76.4,30.11,ESE,114,0.9,4.8,91,0.00,,---,0.47,VWS V13.01,2013-07-30 11:03:00,
2013-07-30 07:08:00,79.8,77.0,30.12,ESE,110,2.1,2.9,91,0.00,,---,0.47,VWS V13.01,2013-07-30 11:08:00,
2013-07-30 07:13:00,80.1,77.1,30.12,SE,132,4.4,5.9,90,0.00,,---,0.47,VWS V13.01,2013-07-30 11:13:00,
2013-07-30 07:19:00,80.4,76.9,30.12,ESE,114,2.2,2.5,89,0.00,,---,0.47,VWS V13.01,2013-07-30 11:19:00,
2013-07-30 07:24:00,81.1,77.1,30.12,SSE,162,3.5,4.1,88,0.00,,---,0.47,VWS V13.01,2013-07-30 11:24:00,
2013-07-30 07:29:00,81.6,76.8,30.13,SE,125,4.5,4.5,86,0.00,,---,0.47,VWS V13.01,2013-07-30 11:29:00,
2013-07-30 07:34:00,81.9,77.0,30.13,ESE,104,0.0,0.0,85,0.00,,---,0.47,VWS V13.01,2013-07-30 11:34:00,
2013-07-30 07:39:00,82.5,76.9,30.13,East,83,2.3,3.3,83,0.00,,---,0.47,VWS V13.01,2013-07-30 11:39:00,
2013-07-30 07:44:00,82.6,76.8,30.13,East,97,1.4,1.6,83,0.00,,---,0.47,VWS V13.01,2013-07-30 11:44:00,
2013-07-30 07:49:00,82.7,76.3,30.13,ESE,112,3.4,6.2,81,0.00,,---,0.47,VWS V13.01,2013-07-30 11:49:00,
2013-07-30 07:54:00,83.3,76.6,30.13,ESE,107,3.1,3.2,80,0.00,,---,0.47,VWS V13.01,2013-07-30 11:54:00,
2013-07-30 07:59:00,83.4,77.0,30.13,ESE,103,1.1,1.5,81,0.00,,---,0.47,VWS V13.01,2013-07-30 11:59:00,
2013-07-30 08:04:00,83.8,77.4,30.13,SE,132,6.1,8.3,81,0.00,,---,0.47,VWS V13.01,2013-07-30 12:04:00,
2013-07-30 08:09:00,84.1,77.7,30.13,SE,136,1.6,1.6,81,0.00,,---,0.47,VWS V13.01,2013-07-30 12:09:00,
2013-07-30 08:14:00,84.1,77.5,30.13,ESE,120,2.1,2.7,81,0.00,,---,0.47,VWS V13.01,2013-07-30 12:14:00,
2013-07-30 08:19:00,84.3,77.8,30.13,SE,143,0.0,2.5,81,0.00,,---,0.47,VWS V13.01,2013-07-30 12:19:00,
2013-07-30 08:24:00,84.5,77.9,30.14,SE,131,3.4,5.3,81,0.00,,---,0.47,VWS V13.01,2013-07-30 12:24:00,
2013-07-30 08:29:00,84.4,77.7,30.14,SE,125,3.5,4.0,80,0.00,,---,0.47,VWS V13.01,2013-07-30 12:29:00,
2013-07-30 08:34:00,84.5,78.0,30.15,SE,143,5.5,5.5,81,0.00,,---,0.47,VWS V13.01,2013-07-30 12:34:00,
2013-07-30 08:39:00,84.4,77.9,30.15,ESE,120,0.6,2.5,81,0.00,,---,0.47,VWS V13.01,2013-07-30 12:39:00,
2013-07-30 08:44:00,84.2,77.7,30.15,SE,136,2.7,3.7,81,0.00,,---,0.47,VWS V13.01,2013-07-30 12:44:00,
2013-07-30 08:49:00,83.8,77.3,30.15,SE,141,4.0,8.9,81,0.00,,---,0.47,VWS V13.01,2013-07-30 12:49:00,
2013-07-30 08:54:00,83.2,75.4,30.15,SE,138,4.1,8.1,77,0.00,,---,0.47,VWS V13.01,2013-07-30 12:54:00,
2013-07-30 09:00:00,82.5,75.2,30.15,SE,143,3.7,6.6,79,0.00,,---,0.47,VWS V13.01,2013-07-30 13:00:00,
2013-07-30 09:05:00,82.5,75.4,30.16,SW,222,1.2,6.0,79,0.00,,---,0.47,VWS V13.01,2013-07-30 13:05:00,
2013-07-30 09:10:00,82.5,75.0,30.15,SSE,166,3.0,3.5,78,0.00,,---,0.47,VWS V13.01,2013-07-30 13:10:00,
2013-07-30 09:15:00,82.7,74.5,30.16,SE,127,2.9,3.6,76,0.00,,---,0.47,VWS V13.01,2013-07-30 13:15:00,
2013-07-30 09:20:00,82.6,73.9,30.16,SE,136,2.2,2.4,75,0.00,,---,0.47,VWS V13.01,2013-07-30 13:20:00,
2013-07-30 09:25:00,82.4,74.1,30.15,ENE,75,0.0,0.0,76,0.00,,---,0.47,VWS V13.01,2013-07-30 13:25:00,
2013-07-30 09:30:00,82.4,74.4,30.16,ENE,75,0.0,0.0,77,0.00,,---,0.47,VWS V13.01,2013-07-30 13:30:00,
2013-07-30 09:35:00,82.5,74.7,30.17,ENE,75,0.0,0.0,77,0.00,,---,0.47,VWS V13.01,2013-07-30 13:35:00,
2013-07-30 09:40:00,82.8,75.7,30.17,ESE,115,2.9,2.9,79,0.00,,---,0.47,VWS V13.01,2013-07-30 13:40:00,
2013-07-30 09:46:00,82.8,76.3,30.16,ESE,104,2.1,2.1,81,0.00,,---,0.47,VWS V13.01,2013-07-30 13:46:00,
2013-07-30 09:51:00,83.0,76.7,30.16,SSE,150,1.3,1.7,81,0.00,,---,0.47,VWS V13.01,2013-07-30 13:51:00,
2013-07-30 09:56:00,83.3,77.2,30.16,SE,124,2.9,5.2,82,0.00,,---,0.47,VWS V13.01,2013-07-30 13:56:00,
2013-07-30 10:01:00,83.7,77.4,30.16,ESE,118,5.0,7.2,81,0.00,,---,0.47,VWS V13.01,2013-07-30 14:01:00,
2013-07-30 10:06:00,83.9,76.8,30.16,SSW,207,3.7,5.0,79,0.00,,---,0.47,VWS V13.01,2013-07-30 14:06:00,
2013-07-30 10:11:00,83.6,76.7,30.16,SSW,200,3.0,3.9,80,0.00,,---,0.47,VWS V13.01,2013-07-30 14:11:00,
2013-07-30 10:16:00,83.9,76.8,30.17,WSW,239,3.3,7.2,79,0.00,,---,0.47,VWS V13.01,2013-07-30 14:16:00,
2013-07-30 10:21:00,85.0,77.7,30.17,ESE,118,3.4,5.1,79,0.00,,---,0.47,VWS V13.01,2013-07-30 14:21:00,
2013-07-30 10:26:00,85.9,77.7,30.17,SE,143,2.9,5.5,76,0.00,,---,0.47,VWS V13.01,2013-07-30 14:26:00,
2013-07-30 10:31:00,86.8,77.0,30.17,SSE,158,5.0,5.8,73,0.00,,---,0.47,VWS V13.01,2013-07-30 14:31:00,
2013-07-30 10:36:00,87.2,77.8,30.16,ESE,117,5.9,6.6,74,0.00,,---,0.47,VWS V13.01,2013-07-30 14:36:00,
2013-07-30 10:41:00,87.0,76.5,30.16,ESE,107,8.5,14.0,71,0.00,,---,0.47,VWS V13.01,2013-07-30 14:41:00,
2013-07-30 10:46:00,86.8,76.9,30.17,SE,129,10.5,11.4,72,0.00,,---,0.47,VWS V13.01,2013-07-30 14:46:00,
2013-07-30 10:51:00,87.1,77.4,30.17,ESE,114,10.8,10.8,73,0.00,,---,0.47,VWS V13.01,2013-07-30 14:51:00,
2013-07-30 10:56:00,86.2,77.3,30.17,ENE,66,3.9,9.5,75,0.00,,---,0.47,VWS V13.01,2013-07-30 14:56:00,
2013-07-30 11:01:00,85.2,76.8,30.17,ESE,118,9.9,17.6,76,0.00,,---,0.47,VWS V13.01,2013-07-30 15:01:00,
2013-07-30 11:06:00,85.0,76.6,30.17,South,191,4.0,6.6,76,0.00,,---,0.47,VWS V13.01,2013-07-30 15:06:00,
2013-07-30 11:12:00,85.0,76.9,30.17,SW,215,4.7,4.8,77,0.00,,---,0.47,VWS V13.01,2013-07-30 15:12:00,
2013-07-30 11:17:00,85.1,76.8,30.17,SSE,160,1.5,3.4,76,0.00,,---,0.47,VWS V13.01,2013-07-30 15:17:00,
2013-07-30 11:22:00,85.7,77.3,30.17,SSE,160,1.9,4.5,76,0.00,,---,0.47,VWS V13.01,2013-07-30 15:22:00,
2013-07-30 11:27:00,86.8,77.8,30.17,SE,145,2.9,3.1,75,0.00,,---,0.47,VWS V13.01,2013-07-30 15:27:00,
2013-07-30 11:32:00,87.4,77.8,30.17,ESE,117,3.4,3.4,73,0.00,,---,0.47,VWS V13.01,2013-07-30 15:32:00,
2013-07-30 11:37:00,87.4,76.9,30.16,SE,129,6.5,8.4,71,0.00,,---,0.47,VWS V13.01,2013-07-30 15:37:00,
2013-07-30 11:42:00,87.1,77.1,30.17,SE,125,7.5,11.1,72,0.00,,---,0.47,VWS V13.01,2013-07-30 15:42:00,
2013-07-30 11:47:00,87.3,76.8,30.17,SE,131,4.8,12.3,71,0.00,,---,0.47,VWS V13.01,2013-07-30 15:47:00,
2013-07-30 11:52:00,87.7,77.3,30.17,SE,125,7.0,7.3,71,0.00,,---,0.47,VWS V13.01,2013-07-30 15:52:00,
2013-07-30 11:58:00,87.6,77.0,30.16,ESE,111,5.3,9.5,71,0.00,,---,0.47,VWS V13.01,2013-07-30 15:58:00,
2013-07-30 12:04:00,87.8,76.9,30.16,East,98,5.8,11.4,70,0.00,,---,0.47,VWS V13.01,2013-07-30 16:04:00,
2013-07-30 12:09:00,87.7,77.3,30.16,East,87,5.6,11.9,72,0.00,,---,0.47,VWS V13.01,2013-07-30 16:09:00,
2013-07-30 12:14:00,87.4,76.8,30.16,SE,135,4.9,11.5,71,0.00,,---,0.47,VWS V13.01,2013-07-30 16:14:00,
2013-07-30 12:19:00,87.8,77.4,30.16,ESE,117,4.8,5.8,71,0.00,,---,0.47,VWS V13.01,2013-07-30 16:19:00,
2013-07-30 12:24:00,87.5,77.2,30.15,ESE,118,8.5,10.8,72,0.00,,---,0.47,VWS V13.01,2013-07-30 16:24:00,
2013-07-30 12:29:00,87.5,76.8,30.15,SSE,149,3.0,8.2,71,0.00,,---,0.47,VWS V13.01,2013-07-30 16:29:00,
2013-07-30 12:34:00,87.8,77.2,30.15,SSE,163,3.2,10.3,71,0.00,,---,0.47,VWS V13.01,2013-07-30 16:34:00,
2013-07-30 12:39:00,87.7,75.7,30.15,East,90,6.1,10.9,68,0.00,,---,0.47,VWS V13.01,2013-07-30 16:39:00,
2013-07-30 12:44:00,87.8,77.1,30.15,SSE,153,2.2,4.6,71,0.00,,---,0.47,VWS V13.01,2013-07-30 16:44:00,
2013-07-30 12:49:00,87.8,77.2,30.15,SE,136,6.9,8.9,71,0.00,,---,0.47,VWS V13.01,2013-07-30 16:49:00,
2013-07-30 12:55:00,87.9,76.0,30.15,ESE,105,4.8,8.4,68,0.00,,---,0.47,VWS V13.01,2013-07-30 16:55:00,
2013-07-30 13:00:00,88.4,76.3,30.14,SE,132,2.5,4.9,68,0.00,,---,0.47,VWS V13.01,2013-07-30 17:00:00,
2013-07-30 13:05:00,88.2,77.1,30.14,ESE,111,8.3,13.2,70,0.00,,---,0.47,VWS V13.01,2013-07-30 17:05:00,
2013-07-30 13:10:00,88.0,77.0,30.14,East,96,2.9,4.6,70,0.00,,---,0.47,VWS V13.01,2013-07-30 17:10:00,
2013-07-30 13:15:00,88.4,76.0,30.14,ESE,117,6.4,7.5,67,0.00,,---,0.47,VWS V13.01,2013-07-30 17:15:00,
2013-07-30 13:20:00,88.3,76.9,30.14,SE,127,10.1,11.0,69,0.00,,---,0.47,VWS V13.01,2013-07-30 17:20:00,
2013-07-30 13:26:00,88.0,76.2,30.14,ENE,72,2.7,4.8,68,0.00,,---,0.47,VWS V13.01,2013-07-30 17:26:00,
2013-07-30 13:31:00,88.1,76.5,30.14,ESE,107,7.0,7.8,69,0.00,,---,0.47,VWS V13.01,2013-07-30 17:31:00,
2013-07-30 13:36:00,88.0,76.7,30.14,ESE,112,5.8,8.8,69,0.00,,---,0.47,VWS V13.01,2013-07-30 17:36:00,
2013-07-30 13:41:00,88.1,75.8,30.14,SE,124,9.4,10.6,67,0.00,,---,0.47,VWS V13.01,2013-07-30 17:41:00,
2013-07-30 13:46:00,87.7,76.3,30.13,NE,55,6.0,10.7,69,0.00,,---,0.47,VWS V13.01,2013-07-30 17:46:00,
2013-07-30 13:51:00,87.9,76.5,30.13,SSE,165,5.8,7.5,69,0.00,,---,0.47,VWS V13.01,2013-07-30 17:51:00,
2013-07-30 13:56:00,87.8,76.2,30.13,SE,129,2.0,6.0,69,0.00,,---,0.47,VWS V13.01,2013-07-30 17:56:00,
2013-07-30 14:01:00,88.2,76.3,30.13,SE,139,4.0,6.3,68,0.00,,---,0.47,VWS V13.01,2013-07-30 18:01:00,
2013-07-30 14:06:00,88.9,77.0,30.13,East,83,1.2,3.5,68,0.00,,---,0.47,VWS V13.01,2013-07-30 18:06:00,
2013-07-30 14:12:00,88.6,76.8,30.13,ESE,111,2.9,5.8,68,0.00,,---,0.47,VWS V13.01,2013-07-30 18:12:00,
2013-07-30 14:17:00,88.7,76.8,30.13,SSW,193,2.7,6.0,68,0.00,,---,0.47,VWS V13.01,2013-07-30 18:17:00,
2013-07-30 14:23:00,88.1,76.2,30.12,ESE,107,6.5,15.5,68,0.00,,---,0.47,VWS V13.01,2013-07-30 18:23:00,
2013-07-30 14:28:00,88.2,76.8,30.12,SE,132,4.2,8.3,69,0.00,,---,0.47,VWS V13.01,2013-07-30 18:28:00,
2013-07-30 14:33:00,88.1,77.2,30.12,ESE,117,4.6,6.2,70,0.00,,---,0.47,VWS V13.01,2013-07-30 18:33:00,
2013-07-30 14:39:00,87.8,76.5,30.12,ESE,114,5.5,9.3,69,0.00,,---,0.47,VWS V13.01,2013-07-30 18:39:00,
2013-07-30 14:44:00,87.7,76.8,30.11,East,97,4.9,5.3,70,0.00,,---,0.47,VWS V13.01,2013-07-30 18:44:00,
2013-07-30 14:49:00,87.7,76.7,30.11,East,96,7.1,9.6,70,0.00,,---,0.47,VWS V13.01,2013-07-30 18:49:00,
2013-07-30 14:54:00,88.0,76.7,30.11,SE,125,3.7,8.1,69,0.00,,---,0.47,VWS V13.01,2013-07-30 18:54:00,
2013-07-30 14:59:00,88.0,76.7,30.11,SSE,165,4.3,10.3,69,0.00,,---,0.47,VWS V13.01,2013-07-30 18:59:00,
2013-07-30 15:04:00,87.8,76.6,30.11,East,100,7.5,12.1,70,0.00,,---,0.47,VWS V13.01,2013-07-30 19:04:00,
2013-07-30 15:09:00,87.6,77.3,30.11,SE,131,5.2,7.1,72,0.00,,---,0.47,VWS V13.01,2013-07-30 19:09:00,
2013-07-30 15:15:00,87.8,76.1,30.10,East,98,6.3,7.6,68,0.00,,---,0.47,VWS V13.01,2013-07-30 19:15:00,
2013-07-30 15:20:00,87.7,77.1,30.10,ENE,73,5.7,8.6,71,0.00,,---,0.47,VWS V13.01,2013-07-30 19:20:00,
2013-07-30 15:25:00,87.6,76.8,30.10,ESE,110,3.2,11.1,70,0.00,,---,0.47,VWS V13.01,2013-07-30 19:25:00,
2013-07-30 15:30:00,87.5,76.3,30.10,NNE,28,4.5,9.1,70,0.00,,---,0.47,VWS V13.01,2013-07-30 19:30:00,
2013-07-30 15:35:00,87.8,76.7,30.10,ESE,104,6.8,12.6,70,0.00,,---,0.47,VWS V13.01,2013-07-30 19:35:00,
2013-07-30 15:40:00,87.8,76.8,30.10,SE,128,4.7,6.7,70,0.00,,---,0.47,VWS V13.01,2013-07-30 19:40:00,
2013-07-30 15:45:00,88.2,76.3,30.09,SE,138,4.7,11.3,68,0.00,,---,0.47,VWS V13.01,2013-07-30 19:45:00,
2013-07-30 15:51:00,88.2,77.1,30.09,ESE,117,1.1,4.5,70,0.00,,---,0.47,VWS V13.01,2013-07-30 19:51:00,
2013-07-30 15:56:00,87.8,77.1,30.09,ESE,114,8.4,11.2,71,0.00,,---,0.47,VWS V13.01,2013-07-30 19:56:00,
2013-07-30 16:01:00,87.9,77.2,30.09,ESE,122,5.8,8.0,71,0.00,,---,0.47,VWS V13.01,2013-07-30 20:01:00,
2013-07-30 16:06:00,87.6,76.6,30.09,ESE,115,6.4,6.5,70,0.00,,---,0.47,VWS V13.01,2013-07-30 20:06:00,
2013-07-30 16:11:00,87.5,76.6,30.08,East,80,8.1,8.1,70,0.00,,---,0.47,VWS V13.01,2013-07-30 20:11:00,
2013-07-30 16:16:00,87.6,76.6,30.08,SE,143,5.9,7.6,70,0.00,,---,0.47,VWS V13.01,2013-07-30 20:16:00,
2013-07-30 16:22:00,87.8,76.9,30.08,ENE,75,4.8,6.0,70,0.00,,---,0.47,VWS V13.01,2013-07-30 20:22:00,
2013-07-30 16:28:00,88.3,76.4,30.09,SSE,149,7.9,9.1,68,0.00,,---,0.47,VWS V13.01,2013-07-30 20:28:00,
2013-07-30 16:33:00,87.9,76.4,30.08,ESE,122,10.8,13.2,69,0.00,,---,0.47,VWS V13.01,2013-07-30 20:33:00,
2013-07-30 16:38:00,87.9,76.1,30.08,SSE,163,5.7,10.0,68,0.00,,---,0.47,VWS V13.01,2013-07-30 20:38:00,
2013-07-30 16:43:00,87.8,75.9,30.08,ESE,105,8.8,9.1,68,0.00,,---,0.47,VWS V13.01,2013-07-30 20:43:00,
2013-07-30 16:48:00,87.5,76.3,30.08,SE,136,3.4,8.0,69,0.00,,---,0.47,VWS V13.01,2013-07-30 20:48:00,
2013-07-30 16:53:00,87.6,76.4,30.08,ESE,117,8.4,11.9,70,0.00,,---,0.47,VWS V13.01,2013-07-30 20:53:00,
2013-07-30 16:58:00,87.6,76.3,30.08,SE,142,4.3,8.8,69,0.00,,---,0.47,VWS V13.01,2013-07-30 20:58:00,
2013-07-30 17:03:00,87.5,76.6,30.07,ESE,110,10.3,12.3,70,0.00,,---,0.47,VWS V13.01,2013-07-30 21:03:00,
2013-07-30 17:08:00,87.1,76.6,30.07,SSE,152,5.9,12.2,71,0.00,,---,0.47,VWS V13.01,2013-07-30 21:08:00,
2013-07-30 17:13:00,87.2,76.7,30.07,SE,124,6.7,6.7,71,0.00,,---,0.47,VWS V13.01,2013-07-30 21:13:00,
2013-07-30 17:18:00,87.1,76.6,30.06,SE,142,7.9,10.4,71,0.00,,---,0.47,VWS V13.01,2013-07-30 21:18:00,
2013-07-30 17:24:00,87.0,76.6,30.07,SSE,153,3.7,11.0,71,0.00,,---,0.47,VWS V13.01,2013-07-30 21:24:00,
2013-07-30 17:29:00,87.3,76.5,30.07,ESE,117,3.8,4.8,70,0.00,,---,0.47,VWS V13.01,2013-07-30 21:29:00,
2013-07-30 17:34:00,87.3,76.2,30.07,East,93,7.2,9.8,70,0.00,,---,0.47,VWS V13.01,2013-07-30 21:34:00,
2013-07-30 17:39:00,87.1,76.7,30.06,South,181,3.6,6.3,71,0.00,,---,0.47,VWS V13.01,2013-07-30 21:39:00,
2013-07-30 17:44:00,87.3,76.7,30.06,SE,136,5.3,7.0,71,0.00,,---,0.47,VWS V13.01,2013-07-30 21:44:00,
2013-07-30 17:49:00,87.3,77.1,30.06,ESE,121,9.6,11.2,72,0.00,,---,0.47,VWS V13.01,2013-07-30 21:49:00,
2013-07-30 17:54:00,87.2,76.9,30.06,SE,135,4.5,8.4,72,0.00,,---,0.47,VWS V13.01,2013-07-30 21:54:00,
2013-07-30 17:59:00,87.0,75.8,30.06,ESE,112,3.9,7.8,70,0.00,,---,0.47,VWS V13.01,2013-07-30 21:59:00,
2013-07-30 18:05:00,86.9,75.0,30.06,SE,127,3.6,3.6,68,0.00,,---,0.47,VWS V13.01,2013-07-30 22:05:00,
2013-07-30 18:10:00,87.0,75.3,30.06,SE,142,3.8,4.5,68,0.00,,---,0.47,VWS V13.01,2013-07-30 22:10:00,
2013-07-30 18:15:00,86.6,74.7,30.06,SE,128,6.5,12.4,68,0.00,,---,0.47,VWS V13.01,2013-07-30 22:15:00,
2013-07-30 18:20:00,86.5,74.7,30.06,SE,131,7.0,8.0,68,0.00,,---,0.47,VWS V13.01,2013-07-30 22:20:00,
2013-07-30 18:25:00,86.7,75.4,30.06,SE,131,3.6,6.9,69,0.00,,---,0.47,VWS V13.01,2013-07-30 22:25:00,
2013-07-30 18:30:00,87.1,75.5,30.06,ESE,117,5.3,6.1,69,0.00,,---,0.47,VWS V13.01,2013-07-30 22:30:00,
2013-07-30 18:35:00,87.1,75.5,30.06,SE,138,6.6,8.6,68,0.00,,---,0.47,VWS V13.01,2013-07-30 22:35:00,
2013-07-30 18:40:00,86.8,75.8,30.06,East,96,2.8,8.1,70,0.00,,---,0.47,VWS V13.01,2013-07-30 22:40:00,
2013-07-30 18:45:00,86.5,75.8,30.06,SE,124,8.9,8.9,71,0.00,,---,0.47,VWS V13.01,2013-07-30 22:45:00,
2013-07-30 18:50:00,86.2,76.2,30.06,ESE,105,7.6,8.6,72,0.00,,---,0.47,VWS V13.01,2013-07-30 22:50:00,
2013-07-30 18:55:00,86.0,76.2,30.06,ESE,122,5.3,9.2,73,0.00,,---,0.47,VWS V13.01,2013-07-30 22:55:00,
2013-07-30 19:00:00,85.9,75.9,30.07,East,96,2.9,5.4,72,0.00,,---,0.47,VWS V13.01,2013-07-30 23:00:00,
2013-07-30 19:06:00,85.6,75.7,30.06,ESE,120,7.8,7.8,72,0.00,,---,0.47,VWS V13.01,2013-07-30 23:06:00,
2013-07-30 19:11:00,85.7,76.1,30.06,ENE,60,1.7,5.9,73,0.00,,---,0.47,VWS V13.01,2013-07-30 23:11:00,
2013-07-30 19:16:00,85.7,76.2,30.07,SE,125,5.9,6.4,73,0.00,,---,0.47,VWS V13.01,2013-07-30 23:16:00,
2013-07-30 19:21:00,85.4,75.7,30.07,SSW,195,3.9,4.8,73,0.00,,---,0.47,VWS V13.01,2013-07-30 23:21:00,
2013-07-30 19:26:00,85.4,75.7,30.07,ESE,121,2.7,6.8,73,0.00,,---,0.47,VWS V13.01,2013-07-30 23:26:00,
2013-07-30 19:31:00,85.3,76.0,30.07,ESE,121,3.9,5.2,74,0.00,,---,0.47,VWS V13.01,2013-07-30 23:31:00,
2013-07-30 19:36:00,85.0,75.9,30.07,ESE,120,5.2,8.9,74,0.00,,---,0.47,VWS V13.01,2013-07-30 23:36:00,
2013-07-30 19:41:00,85.2,76.5,30.07,SE,142,4.3,5.5,75,0.00,,---,0.47,VWS V13.01,2013-07-30 23:41:00,
2013-07-30 19:46:00,84.8,76.3,30.07,ENE,72,5.7,6.2,76,0.00,,---,0.47,VWS V13.01,2013-07-30 23:46:00,
2013-07-30 19:51:00,84.6,75.8,30.07,ESE,122,8.0,8.0,75,0.00,,---,0.47,VWS V13.01,2013-07-30 23:51:00,
2013-07-30 19:56:00,84.5,75.7,30.08,ESE,107,3.4,7.8,75,0.00,,---,0.47,VWS V13.01,2013-07-30 23:56:00,
2013-07-30 20:01:00,84.5,75.8,30.08,ESE,122,5.0,8.1,75,0.00,,---,0.47,VWS V13.01,2013-07-31 00:01:00,
2013-07-30 20:06:00,84.4,75.5,30.08,SSE,159,1.4,7.1,75,0.00,,---,0.47,VWS V13.01,2013-07-31 00:06:00,
2013-07-30 20:11:00,84.5,75.4,30.08,SSE,162,0.9,4.0,74,0.00,,---,0.47,VWS V13.01,2013-07-31 00:11:00,
2013-07-30 20:16:00,84.5,75.3,30.09,ESE,104,3.8,5.2,74,0.00,,---,0.47,VWS V13.01,2013-07-31 00:16:00,
2013-07-30 20:22:00,84.4,75.3,30.09,ENE,58,0.8,1.2,74,0.00,,---,0.47,VWS V13.01,2013-07-31 00:22:00,
2013-07-30 20:27:00,84.4,75.4,30.08,SE,131,0.5,1.3,75,0.00,,---,0.47,VWS V13.01,2013-07-31 00:27:00,
2013-07-30 20:32:00,84.4,75.5,30.08,ESE,120,6.5,6.9,75,0.00,,---,0.47,VWS V13.01,2013-07-31 00:32:00,
2013-07-30 20:37:00,84.2,75.0,30.08,ESE,105,6.2,7.6,74,0.00,,---,0.47,VWS V13.01,2013-07-31 00:37:00,
2013-07-30 20:42:00,84.3,75.3,30.08,ESE,117,4.7,5.3,74,0.00,,---,0.47,VWS V13.01,2013-07-31 00:42:00,
2013-07-30 20:47:00,84.2,75.5,30.09,SE,138,2.3,2.3,75,0.00,,---,0.47,VWS V13.01,2013-07-31 00:47:00,
2013-07-30 20:52:00,84.3,75.4,30.09,SE,143,3.2,4.8,75,0.00,,---,0.47,VWS V13.01,2013-07-31 00:52:00,
2013-07-30 20:57:00,84.3,75.6,30.09,SE,145,3.2,4.8,75,0.00,,---,0.47,VWS V13.01,2013-07-31 00:57:00,
2013-07-30 21:02:00,84.2,75.6,30.09,ESE,105,2.8,2.9,76,0.00,,---,0.47,VWS V13.01,2013-07-31 01:02:00,
2013-07-30 21:07:00,84.2,75.9,30.09,SE,139,0.6,2.3,76,0.00,,---,0.47,VWS V13.01,2013-07-31 01:07:00,
2013-07-30 21:12:00,84.2,76.1,30.09,SE,135,2.2,3.7,77,0.00,,---,0.47,VWS V13.01,2013-07-31 01:12:00,
2013-07-30 21:17:00,84.2,75.9,30.10,ESE,121,7.3,7.3,76,0.00,,---,0.47,VWS V13.01,2013-07-31 01:17:00,
2013-07-30 21:22:00,84.0,75.9,30.10,SE,142,2.1,6.2,77,0.00,,---,0.47,VWS V13.01,2013-07-31 01:22:00,
2013-07-30 21:27:00,84.1,75.9,30.10,SE,131,3.7,6.0,76,0.00,,---,0.47,VWS V13.01,2013-07-31 01:27:00,
2013-07-30 21:32:00,84.0,76.0,30.10,SE,142,1.2,8.8,77,0.00,,---,0.47,VWS V13.01,2013-07-31 01:32:00,
2013-07-30 21:37:00,84.2,76.3,30.10,SE,125,4.2,4.2,77,0.00,,---,0.47,VWS V13.01,2013-07-31 01:37:00,
2013-07-30 21:42:00,83.8,76.0,30.10,SE,124,5.3,8.2,78,0.00,,---,0.47,VWS V13.01,2013-07-31 01:42:00,
2013-07-30 21:47:00,83.9,76.0,30.10,SE,131,5.3,6.8,77,0.00,,---,0.47,VWS V13.01,2013-07-31 01:47:00,
2013-07-30 21:52:00,84.1,76.3,30.10,SE,141,1.7,6.8,78,0.00,,---,0.47,VWS V13.01,2013-07-31 01:52:00,
2013-07-30 21:57:00,84.3,76.4,30.10,ESE,118,2.8,5.8,77,0.00,,---,0.47,VWS V13.01,2013-07-31 01:57:00,
2013-07-30 22:02:00,84.1,76.4,30.10,SSE,148,5.8,6.8,78,0.00,,---,0.47,VWS V13.01,2013-07-31 02:02:00,
2013-07-30 22:07:00,84.3,76.7,30.10,SE,135,3.0,3.7,78,0.00,,---,0.47,VWS V13.01,2013-07-31 02:07:00,
2013-07-30 22:12:00,84.2,76.7,30.10,SE,131,0.0,0.6,78,0.00,,---,0.47,VWS V13.01,2013-07-31 02:12:00,
2013-07-30 22:17:00,83.9,76.5,30.10,East,96,1.0,2.4,78,0.00,,---,0.47,VWS V13.01,2013-07-31 02:17:00,
2013-07-30 22:22:00,83.9,76.5,30.10,ESE,122,1.9,4.3,79,0.00,,---,0.47,VWS V13.01,2013-07-31 02:22:00,
2013-07-30 22:27:00,83.9,76.2,30.10,ESE,112,3.9,5.3,78,0.00,,---,0.47,VWS V13.01,2013-07-31 02:27:00,
2013-07-30 22:32:00,84.0,76.3,30.10,SE,129,5.0,5.0,78,0.00,,---,0.47,VWS V13.01,2013-07-31 02:32:00,
2013-07-30 22:37:00,83.7,75.9,30.10,SE,129,4.8,6.5,77,0.00,,---,0.47,VWS V13.01,2013-07-31 02:37:00,
2013-07-30 22:42:00,83.9,76.1,30.10,ESE,114,3.7,4.7,77,0.00,,---,0.47,VWS V13.01,2013-07-31 02:42:00,
2013-07-30 22:47:00,83.8,76.1,30.10,SSE,163,1.5,6.3,78,0.00,,---,0.47,VWS V13.01,2013-07-31 02:47:00,
2013-07-30 22:52:00,83.8,76.4,30.10,ESE,104,6.6,8.1,78,0.00,,---,0.47,VWS V13.01,2013-07-31 02:52:00,
2013-07-30 22:57:00,83.6,75.7,30.10,SE,132,2.7,2.7,77,0.00,,---,0.47,VWS V13.01,2013-07-31 02:57:00,
2013-07-30 23:02:00,83.7,75.6,30.10,SE,128,3.0,4.5,77,0.00,,---,0.47,VWS V13.01,2013-07-31 03:02:00,
2013-07-30 23:07:00,83.7,75.7,30.09,ESE,122,3.2,5.9,77,0.00,,---,0.47,VWS V13.01,2013-07-31 03:07:00,
2013-07-30 23:12:00,83.7,75.9,30.09,SSE,153,2.0,3.2,77,0.00,,---,0.47,VWS V13.01,2013-07-31 03:12:00,
2013-07-30 23:18:00,83.5,76.0,30.09,SE,136,6.9,6.9,78,0.00,,---,0.47,VWS V13.01,2013-07-31 03:18:00,
2013-07-30 23:23:00,83.4,75.7,30.09,SE,131,2.1,3.2,78,0.00,,---,0.47,VWS V13.01,2013-07-31 03:23:00,
2013-07-30 23:28:00,83.5,75.7,30.09,ESE,104,7.5,9.8,78,0.00,,---,0.47,VWS V13.01,2013-07-31 03:28:00,
2013-07-30 23:33:00,83.4,75.6,30.09,SE,131,4.1,5.9,78,0.00,,---,0.47,VWS V13.01,2013-07-31 03:33:00,
2013-07-30 23:38:00,83.4,75.8,30.10,SE,131,2.7,2.7,78,0.00,,---,0.47,VWS V13.01,2013-07-31 03:38:00,
2013-07-30 23:43:00,83.4,75.9,30.10,SE,142,6.0,6.3,78,0.00,,---,0.47,VWS V13.01,2013-07-31 03:43:00,
2013-07-30 23:48:00,83.5,75.8,30.10,SE,129,5.8,6.3,78,0.00,,---,0.47,VWS V13.01,2013-07-31 03:48:00,
2013-07-30 23:53:00,83.4,75.6,30.10,ESE,103,5.0,5.7,77,0.00,,---,0.47,VWS V13.01,2013-07-31 03:53:00,
2013-07-30 23:58:00,83.4,75.5,30.10,SSE,155,1.4,1.9,77,0.00,,---,0.47,VWS V13.01,2013-07-31 03:58:00,